sensor_id;sensor_type;location;lat;lon;timestamp;temperature;humidity
285;DHT22;127;48.770;9.212;2023-03-04T00:00:37;2.10;99.90
285;DHT22;127;48.770;9.212;2023-03-04T00:03:10;2.10;99.90
285;DHT22;127;48.770;9.212;2023-03-04T00:05:40;2.10;99.90
285;DHT22;127;48.770;9.212;2023-03-04T00:08:08;2.00;99.90
285;DHT22;127;48.770;9.212;2023-03-04T00:10:37;2.00;99.90
285;DHT22;127;48.770;9.212;2023-03-04T00:13:05;2.00;99.90
285;DHT22;127;48.770;9.212;2023-03-04T00:15:37;2.00;99.90
285;DHT22;127;48.770;9.212;2023-03-04T00:18:05;2.00;99.90
285;DHT22;127;48.770;9.212;2023-03-04T00:20:34;1.90;99.90
285;DHT22;127;48.770;9.212;2023-03-04T00:23:02;1.90;99.90
285;DHT22;127;48.770;9.212;2023-03-04T00:25:31;1.90;99.90
285;DHT22;127;48.770;9.212;2023-03-04T00:28:00;1.90;99.90
285;DHT22;127;48.770;9.212;2023-03-04T00:30:28;1.90;99.90
285;DHT22;127;48.770;9.212;2023-03-04T00:32:59;1.80;99.90
285;DHT22;127;48.770;9.212;2023-03-04T00:35:28;1.80;99.90
285;DHT22;127;48.770;9.212;2023-03-04T00:37:56;1.70;99.90
285;DHT22;127;48.770;9.212;2023-03-04T00:40:25;1.60;99.90
285;DHT22;127;48.770;9.212;2023-03-04T00:42:54;1.50;99.90
285;DHT22;127;48.770;9.212;2023-03-04T00:45:22;1.50;99.90
285;DHT22;127;48.770;9.212;2023-03-04T00:47:51;1.50;99.90
285;DHT22;127;48.770;9.212;2023-03-04T00:50:22;1.40;99.90
285;DHT22;127;48.770;9.212;2023-03-04T00:52:51;1.40;99.90
285;DHT22;127;48.770;9.212;2023-03-04T00:55:19;1.40;99.90
285;DHT22;127;48.770;9.212;2023-03-04T00:57:48;1.40;99.90
285;DHT22;127;48.770;9.212;2023-03-04T01:00:17;1.40;99.90
285;DHT22;127;48.770;9.212;2023-03-04T01:02:46;1.30;99.90
285;DHT22;127;48.770;9.212;2023-03-04T01:05:15;1.30;99.90
285;DHT22;127;48.770;9.212;2023-03-04T01:07:46;1.30;99.90
285;DHT22;127;48.770;9.212;2023-03-04T01:10:15;1.20;99.90
285;DHT22;127;48.770;9.212;2023-03-04T01:12:44;1.20;99.90
285;DHT22;127;48.770;9.212;2023-03-04T01:15:13;1.20;99.90
285;DHT22;127;48.770;9.212;2023-03-04T01:17:42;1.10;99.90
285;DHT22;127;48.770;9.212;2023-03-04T01:20:11;1.10;99.90
285;DHT22;127;48.770;9.212;2023-03-04T01:22:40;1.00;99.90
285;DHT22;127;48.770;9.212;2023-03-04T01:25:11;1.00;99.90
285;DHT22;127;48.770;9.212;2023-03-04T01:27:40;0.90;99.90
285;DHT22;127;48.770;9.212;2023-03-04T01:30:10;0.80;99.90
285;DHT22;127;48.770;9.212;2023-03-04T01:32:39;0.80;99.90
285;DHT22;127;48.770;9.212;2023-03-04T01:35:08;0.80;99.90
285;DHT22;127;48.770;9.212;2023-03-04T01:37:37;0.70;99.90
285;DHT22;127;48.770;9.212;2023-03-04T01:40:07;0.60;99.90
285;DHT22;127;48.770;9.212;2023-03-04T01:42:39;0.60;99.90
285;DHT22;127;48.770;9.212;2023-03-04T01:45:10;0.60;99.90
285;DHT22;127;48.770;9.212;2023-03-04T01:47:40;0.50;99.90
285;DHT22;127;48.770;9.212;2023-03-04T01:50:18;0.50;99.90
285;DHT22;127;48.770;9.212;2023-03-04T01:52:47;0.50;99.90
285;DHT22;127;48.770;9.212;2023-03-04T01:55:17;0.40;99.90
285;DHT22;127;48.770;9.212;2023-03-04T01:57:49;0.40;99.90
285;DHT22;127;48.770;9.212;2023-03-04T02:00:29;0.30;99.90
285;DHT22;127;48.770;9.212;2023-03-04T02:03:00;0.30;99.90
285;DHT22;127;48.770;9.212;2023-03-04T02:05:30;0.30;99.90
285;DHT22;127;48.770;9.212;2023-03-04T02:07:59;0.30;99.90
285;DHT22;127;48.770;9.212;2023-03-04T02:10:28;0.30;99.90
285;DHT22;127;48.770;9.212;2023-03-04T02:13:00;0.30;99.90
285;DHT22;127;48.770;9.212;2023-03-04T02:15:30;0.30;99.90
285;DHT22;127;48.770;9.212;2023-03-04T02:17:59;0.30;99.90
285;DHT22;127;48.770;9.212;2023-03-04T02:20:37;0.40;99.90
285;DHT22;127;48.770;9.212;2023-03-04T02:23:13;0.30;99.90
285;DHT22;127;48.770;9.212;2023-03-04T02:25:46;0.30;99.90
285;DHT22;127;48.770;9.212;2023-03-04T02:28:19;0.30;99.90
285;DHT22;127;48.770;9.212;2023-03-04T02:30:48;0.30;99.90
285;DHT22;127;48.770;9.212;2023-03-04T02:33:18;0.30;99.90
285;DHT22;127;48.770;9.212;2023-03-04T02:35:46;0.30;99.90
285;DHT22;127;48.770;9.212;2023-03-04T02:38:15;0.20;99.90
285;DHT22;127;48.770;9.212;2023-03-04T02:40:46;0.20;99.90
285;DHT22;127;48.770;9.212;2023-03-04T02:43:18;0.10;99.90
285;DHT22;127;48.770;9.212;2023-03-04T02:45:48;0.10;99.90
285;DHT22;127;48.770;9.212;2023-03-04T02:48:19;0.00;99.90
285;DHT22;127;48.770;9.212;2023-03-04T02:50:50;0.00;99.90
285;DHT22;127;48.770;9.212;2023-03-04T02:53:20;0.00;99.90
285;DHT22;127;48.770;9.212;2023-03-04T02:55:50;-0.10;99.90
285;DHT22;127;48.770;9.212;2023-03-04T02:58:21;-0.10;99.90
285;DHT22;127;48.770;9.212;2023-03-04T03:00:50;-0.10;99.90
285;DHT22;127;48.770;9.212;2023-03-04T03:03:18;-0.10;99.90
285;DHT22;127;48.770;9.212;2023-03-04T03:05:47;-0.10;99.90
285;DHT22;127;48.770;9.212;2023-03-04T03:08:16;-0.10;99.90
285;DHT22;127;48.770;9.212;2023-03-04T03:10:45;-0.10;99.90
285;DHT22;127;48.770;9.212;2023-03-04T03:13:13;-0.10;99.90
285;DHT22;127;48.770;9.212;2023-03-04T03:15:44;0.00;99.90
285;DHT22;127;48.770;9.212;2023-03-04T03:18:13;-0.10;99.90
285;DHT22;127;48.770;9.212;2023-03-04T03:20:41;0.00;99.90
285;DHT22;127;48.770;9.212;2023-03-04T03:23:10;-0.10;99.90
285;DHT22;127;48.770;9.212;2023-03-04T03:25:39;-0.10;99.90
285;DHT22;127;48.770;9.212;2023-03-04T03:28:07;-0.10;99.90
285;DHT22;127;48.770;9.212;2023-03-04T03:30:36;-0.10;99.90
285;DHT22;127;48.770;9.212;2023-03-04T03:33:07;-0.10;99.90
285;DHT22;127;48.770;9.212;2023-03-04T03:35:36;-0.20;99.90
285;DHT22;127;48.770;9.212;2023-03-04T03:38:04;-0.20;99.90
285;DHT22;127;48.770;9.212;2023-03-04T03:40:33;-0.20;99.90
285;DHT22;127;48.770;9.212;2023-03-04T03:43:02;-0.20;99.90
285;DHT22;127;48.770;9.212;2023-03-04T03:45:30;-0.20;99.90
285;DHT22;127;48.770;9.212;2023-03-04T03:47:59;-0.30;99.90
285;DHT22;127;48.770;9.212;2023-03-04T03:50:30;-0.30;99.90
285;DHT22;127;48.770;9.212;2023-03-04T03:52:59;-0.30;99.90
285;DHT22;127;48.770;9.212;2023-03-04T03:55:27;-0.40;99.90
285;DHT22;127;48.770;9.212;2023-03-04T03:57:56;-0.40;99.90
285;DHT22;127;48.770;9.212;2023-03-04T04:00:25;-0.50;99.90
285;DHT22;127;48.770;9.212;2023-03-04T04:02:54;-0.50;99.90
285;DHT22;127;48.770;9.212;2023-03-04T04:05:23;-0.60;99.90
285;DHT22;127;48.770;9.212;2023-03-04T04:07:55;-0.60;99.90
285;DHT22;127;48.770;9.212;2023-03-04T04:10:23;-0.70;99.90
285;DHT22;127;48.770;9.212;2023-03-04T04:12:52;-0.70;99.90
285;DHT22;127;48.770;9.212;2023-03-04T04:15:21;-0.80;99.90
285;DHT22;127;48.770;9.212;2023-03-04T04:17:49;-0.80;99.90
285;DHT22;127;48.770;9.212;2023-03-04T04:20:18;-0.80;99.90
285;DHT22;127;48.770;9.212;2023-03-04T04:22:46;-0.80;99.90
285;DHT22;127;48.770;9.212;2023-03-04T04:25:18;-0.80;99.90
285;DHT22;127;48.770;9.212;2023-03-04T04:27:46;-0.90;99.90
285;DHT22;127;48.770;9.212;2023-03-04T04:30:15;-1.00;99.90
285;DHT22;127;48.770;9.212;2023-03-04T04:32:44;-1.00;99.90
285;DHT22;127;48.770;9.212;2023-03-04T04:35:12;-1.00;99.90
285;DHT22;127;48.770;9.212;2023-03-04T04:37:41;-1.10;99.90
285;DHT22;127;48.770;9.212;2023-03-04T04:40:11;-1.10;99.90
285;DHT22;127;48.770;9.212;2023-03-04T04:42:43;-1.20;99.90
285;DHT22;127;48.770;9.212;2023-03-04T04:45:12;-1.20;99.90
285;DHT22;127;48.770;9.212;2023-03-04T04:47:41;-1.20;99.90
285;DHT22;127;48.770;9.212;2023-03-04T04:50:10;-1.20;99.90
285;DHT22;127;48.770;9.212;2023-03-04T04:52:38;-1.30;99.90
285;DHT22;127;48.770;9.212;2023-03-04T04:55:08;-1.30;99.90
285;DHT22;127;48.770;9.212;2023-03-04T04:57:37;-1.30;99.90
285;DHT22;127;48.770;9.212;2023-03-04T05:00:09;-1.40;99.90
285;DHT22;127;48.770;9.212;2023-03-04T05:02:38;-1.40;99.90
285;DHT22;127;48.770;9.212;2023-03-04T05:05:07;-1.40;99.90
285;DHT22;127;48.770;9.212;2023-03-04T05:07:36;-1.40;99.90
285;DHT22;127;48.770;9.212;2023-03-04T05:10:06;-1.40;99.90
285;DHT22;127;48.770;9.212;2023-03-04T05:12:34;-1.30;99.90
285;DHT22;127;48.770;9.212;2023-03-04T05:15:03;-1.30;99.90
285;DHT22;127;48.770;9.212;2023-03-04T05:17:35;-1.30;99.90
285;DHT22;127;48.770;9.212;2023-03-04T05:20:04;-1.40;99.90
285;DHT22;127;48.770;9.212;2023-03-04T05:22:33;-1.50;99.90
285;DHT22;127;48.770;9.212;2023-03-04T05:25:02;-1.50;99.90
285;DHT22;127;48.770;9.212;2023-03-04T05:27:31;-1.60;99.90
285;DHT22;127;48.770;9.212;2023-03-04T05:30:00;-1.60;99.90
285;DHT22;127;48.770;9.212;2023-03-04T05:32:29;-1.60;99.90
285;DHT22;127;48.770;9.212;2023-03-04T05:35:00;-1.70;99.90
285;DHT22;127;48.770;9.212;2023-03-04T05:37:28;-1.70;99.90
285;DHT22;127;48.770;9.212;2023-03-04T05:39:57;-1.70;99.90
285;DHT22;127;48.770;9.212;2023-03-04T05:42:26;-1.80;99.90
285;DHT22;127;48.770;9.212;2023-03-04T05:44:54;-1.80;99.90
285;DHT22;127;48.770;9.212;2023-03-04T05:47:23;-1.70;99.90
285;DHT22;127;48.770;9.212;2023-03-04T05:49:51;-1.70;99.90
285;DHT22;127;48.770;9.212;2023-03-04T05:52:23;-1.70;99.90
285;DHT22;127;48.770;9.212;2023-03-04T05:54:52;-1.60;99.90
285;DHT22;127;48.770;9.212;2023-03-04T05:57:20;-1.60;99.90
285;DHT22;127;48.770;9.212;2023-03-04T05:59:49;-1.60;99.90
285;DHT22;127;48.770;9.212;2023-03-04T06:02:18;-1.60;1.00
285;DHT22;127;48.770;9.212;2023-03-04T06:04:46;-1.60;1.00
285;DHT22;127;48.770;9.212;2023-03-04T06:07:15;-1.60;1.00
285;DHT22;127;48.770;9.212;2023-03-04T06:09:46;-1.60;1.00
285;DHT22;127;48.770;9.212;2023-03-04T06:12:14;-1.50;1.00
285;DHT22;127;48.770;9.212;2023-03-04T06:14:43;-1.50;1.00
285;DHT22;127;48.770;9.212;2023-03-04T06:17:12;-1.50;1.00
285;DHT22;127;48.770;9.212;2023-03-04T06:19:41;-1.40;1.00
285;DHT22;127;48.770;9.212;2023-03-04T06:22:10;-1.40;1.00
285;DHT22;127;48.770;9.212;2023-03-04T06:24:38;-1.40;1.00
285;DHT22;127;48.770;9.212;2023-03-04T06:27:10;-1.40;1.00
285;DHT22;127;48.770;9.212;2023-03-04T06:29:38;-1.30;1.00
285;DHT22;127;48.770;9.212;2023-03-04T06:32:07;-1.30;1.00
285;DHT22;127;48.770;9.212;2023-03-04T06:34:36;-1.20;1.00
285;DHT22;127;48.770;9.212;2023-03-04T06:37:04;-1.20;1.00
285;DHT22;127;48.770;9.212;2023-03-04T06:39:33;-1.00;1.00
285;DHT22;127;48.770;9.212;2023-03-04T06:42:02;-0.90;1.00
285;DHT22;127;48.770;9.212;2023-03-04T06:44:33;-0.70;1.00
285;DHT22;127;48.770;9.212;2023-03-04T06:47:01;-0.60;1.00
285;DHT22;127;48.770;9.212;2023-03-04T06:49:30;-0.40;1.00
285;DHT22;127;48.770;9.212;2023-03-04T06:51:59;-0.30;1.00
285;DHT22;127;48.770;9.212;2023-03-04T06:54:28;-0.20;1.00
285;DHT22;127;48.770;9.212;2023-03-04T06:56:56;0.00;1.00
285;DHT22;127;48.770;9.212;2023-03-04T06:59:25;0.00;99.90
285;DHT22;127;48.770;9.212;2023-03-04T07:01:56;0.10;99.90
285;DHT22;127;48.770;9.212;2023-03-04T07:04:25;0.10;99.90
285;DHT22;127;48.770;9.212;2023-03-04T07:06:53;0.20;99.90
285;DHT22;127;48.770;9.212;2023-03-04T07:09:22;0.30;99.90
285;DHT22;127;48.770;9.212;2023-03-04T07:11:51;0.40;99.90
285;DHT22;127;48.770;9.212;2023-03-04T07:14:19;0.40;99.90
285;DHT22;127;48.770;9.212;2023-03-04T07:16:48;0.50;99.90
285;DHT22;127;48.770;9.212;2023-03-04T07:19:19;0.40;99.90
285;DHT22;127;48.770;9.212;2023-03-04T07:21:48;0.40;99.90
285;DHT22;127;48.770;9.212;2023-03-04T07:24:17;0.40;99.90
285;DHT22;127;48.770;9.212;2023-03-04T07:26:45;0.50;99.90
285;DHT22;127;48.770;9.212;2023-03-04T07:29:14;0.50;99.90
285;DHT22;127;48.770;9.212;2023-03-04T07:31:43;0.50;99.90
285;DHT22;127;48.770;9.212;2023-03-04T07:34:12;0.60;99.90
285;DHT22;127;48.770;9.212;2023-03-04T07:36:44;0.70;99.90
285;DHT22;127;48.770;9.212;2023-03-04T07:39:12;0.60;99.90
285;DHT22;127;48.770;9.212;2023-03-04T07:41:41;0.70;99.90
285;DHT22;127;48.770;9.212;2023-03-04T07:44:11;0.70;99.90
285;DHT22;127;48.770;9.212;2023-03-04T07:46:40;0.60;99.90
285;DHT22;127;48.770;9.212;2023-03-04T07:49:11;0.60;99.90
285;DHT22;127;48.770;9.212;2023-03-04T07:51:42;0.70;99.90
285;DHT22;127;48.770;9.212;2023-03-04T07:54:11;0.80;99.90
285;DHT22;127;48.770;9.212;2023-03-04T07:56:40;0.80;99.90
285;DHT22;127;48.770;9.212;2023-03-04T07:59:08;0.90;99.90
285;DHT22;127;48.770;9.212;2023-03-04T08:01:37;0.80;99.90
285;DHT22;127;48.770;9.212;2023-03-04T08:04:06;1.00;99.90
285;DHT22;127;48.770;9.212;2023-03-04T08:06:35;1.00;99.90
285;DHT22;127;48.770;9.212;2023-03-04T08:09:07;0.90;99.90
285;DHT22;127;48.770;9.212;2023-03-04T08:11:37;0.80;99.90
285;DHT22;127;48.770;9.212;2023-03-04T08:14:06;0.80;99.90
285;DHT22;127;48.770;9.212;2023-03-04T08:16:35;0.80;99.90
285;DHT22;127;48.770;9.212;2023-03-04T08:19:04;0.80;99.90
285;DHT22;127;48.770;9.212;2023-03-04T08:21:33;0.90;99.90
285;DHT22;127;48.770;9.212;2023-03-04T08:24:02;0.80;99.90
285;DHT22;127;48.770;9.212;2023-03-04T08:26:37;0.90;99.90
285;DHT22;127;48.770;9.212;2023-03-04T08:29:07;0.90;99.90
285;DHT22;127;48.770;9.212;2023-03-04T08:31:36;0.90;99.90
285;DHT22;127;48.770;9.212;2023-03-04T08:34:07;1.10;99.90
285;DHT22;127;48.770;9.212;2023-03-04T08:36:37;1.00;99.90
285;DHT22;127;48.770;9.212;2023-03-04T08:39:08;1.10;99.90
285;DHT22;127;48.770;9.212;2023-03-04T08:41:39;1.00;99.90
285;DHT22;127;48.770;9.212;2023-03-04T08:44:08;1.10;99.90
285;DHT22;127;48.770;9.212;2023-03-04T08:46:38;1.10;99.90
285;DHT22;127;48.770;9.212;2023-03-04T08:49:09;1.10;99.90
285;DHT22;127;48.770;9.212;2023-03-04T08:51:39;1.10;99.90
285;DHT22;127;48.770;9.212;2023-03-04T08:54:09;1.10;99.90
285;DHT22;127;48.770;9.212;2023-03-04T08:56:40;1.10;99.90
285;DHT22;127;48.770;9.212;2023-03-04T08:59:09;1.20;99.90
285;DHT22;127;48.770;9.212;2023-03-04T09:01:37;1.10;99.90
285;DHT22;127;48.770;9.212;2023-03-04T09:04:06;1.10;99.90
285;DHT22;127;48.770;9.212;2023-03-04T09:06:35;1.20;99.90
285;DHT22;127;48.770;9.212;2023-03-04T09:09:03;1.20;99.90
285;DHT22;127;48.770;9.212;2023-03-04T09:11:32;1.30;99.90
285;DHT22;127;48.770;9.212;2023-03-04T09:14:03;1.40;99.90
285;DHT22;127;48.770;9.212;2023-03-04T09:16:32;1.50;99.90
285;DHT22;127;48.770;9.212;2023-03-04T09:19:00;1.60;99.90
285;DHT22;127;48.770;9.212;2023-03-04T09:21:29;1.60;99.90
285;DHT22;127;48.770;9.212;2023-03-04T09:23:57;1.60;99.90
285;DHT22;127;48.770;9.212;2023-03-04T09:26:28;1.60;99.90
285;DHT22;127;48.770;9.212;2023-03-04T09:28:59;1.70;99.90
285;DHT22;127;48.770;9.212;2023-03-04T09:31:31;1.90;99.90
285;DHT22;127;48.770;9.212;2023-03-04T09:34:00;1.80;99.90
285;DHT22;127;48.770;9.212;2023-03-04T09:36:28;1.80;99.90
285;DHT22;127;48.770;9.212;2023-03-04T09:38:58;1.90;99.90
285;DHT22;127;48.770;9.212;2023-03-04T09:41:35;1.90;99.90
285;DHT22;127;48.770;9.212;2023-03-04T09:44:11;2.00;99.90
285;DHT22;127;48.770;9.212;2023-03-04T09:46:46;2.10;99.90
285;DHT22;127;48.770;9.212;2023-03-04T09:49:17;2.00;99.90
285;DHT22;127;48.770;9.212;2023-03-04T09:51:52;1.90;99.90
285;DHT22;127;48.770;9.212;2023-03-04T09:54:34;1.90;99.90
285;DHT22;127;48.770;9.212;2023-03-04T09:57:20;1.80;99.90
285;DHT22;127;48.770;9.212;2023-03-04T10:00:00;1.90;99.90
285;DHT22;127;48.770;9.212;2023-03-04T10:02:51;2.10;99.90
285;DHT22;127;48.770;9.212;2023-03-04T10:05:24;2.10;99.90
285;DHT22;127;48.770;9.212;2023-03-04T10:07:57;1.90;99.90
285;DHT22;127;48.770;9.212;2023-03-04T10:10:31;2.10;99.90
285;DHT22;127;48.770;9.212;2023-03-04T10:13:02;2.30;99.90
285;DHT22;127;48.770;9.212;2023-03-04T10:15:35;2.40;99.90
285;DHT22;127;48.770;9.212;2023-03-04T10:18:13;2.70;99.90
285;DHT22;127;48.770;9.212;2023-03-04T10:20:51;2.80;99.90
285;DHT22;127;48.770;9.212;2023-03-04T10:23:23;3.00;99.90
285;DHT22;127;48.770;9.212;2023-03-04T10:25:52;3.30;99.90
285;DHT22;127;48.770;9.212;2023-03-04T10:28:24;3.40;99.90
285;DHT22;127;48.770;9.212;2023-03-04T10:30:58;3.50;99.90
285;DHT22;127;48.770;9.212;2023-03-04T10:33:32;3.60;99.90
285;DHT22;127;48.770;9.212;2023-03-04T10:36:03;3.70;99.90
285;DHT22;127;48.770;9.212;2023-03-04T10:38:34;3.60;99.90
285;DHT22;127;48.770;9.212;2023-03-04T10:41:11;3.60;99.90
285;DHT22;127;48.770;9.212;2023-03-04T10:43:40;3.40;99.90
285;DHT22;127;48.770;9.212;2023-03-04T10:46:11;3.40;99.90
285;DHT22;127;48.770;9.212;2023-03-04T10:48:43;3.40;99.90
285;DHT22;127;48.770;9.212;2023-03-04T10:51:19;3.30;99.90
285;DHT22;127;48.770;9.212;2023-03-04T10:53:50;3.30;99.90
285;DHT22;127;48.770;9.212;2023-03-04T10:56:51;3.30;99.90
285;DHT22;127;48.770;9.212;2023-03-04T10:59:34;3.30;99.90
285;DHT22;127;48.770;9.212;2023-03-04T11:02:24;3.50;99.90
285;DHT22;127;48.770;9.212;2023-03-04T11:05:05;3.60;99.90
285;DHT22;127;48.770;9.212;2023-03-04T11:07:39;3.60;99.90
285;DHT22;127;48.770;9.212;2023-03-04T11:10:12;3.50;99.90
285;DHT22;127;48.770;9.212;2023-03-04T11:12:47;3.60;99.90
285;DHT22;127;48.770;9.212;2023-03-04T11:15:19;3.60;99.90
285;DHT22;127;48.770;9.212;2023-03-04T11:17:53;3.60;99.90
285;DHT22;127;48.770;9.212;2023-03-04T11:20:31;3.70;99.90
285;DHT22;127;48.770;9.212;2023-03-04T11:23:04;3.70;99.90
285;DHT22;127;48.770;9.212;2023-03-04T11:25:35;3.90;99.90
285;DHT22;127;48.770;9.212;2023-03-04T11:28:12;4.00;99.90
285;DHT22;127;48.770;9.212;2023-03-04T11:30:45;4.00;99.90
285;DHT22;127;48.770;9.212;2023-03-04T11:33:20;4.10;99.90
285;DHT22;127;48.770;9.212;2023-03-04T11:35:58;4.00;99.90
285;DHT22;127;48.770;9.212;2023-03-04T11:38:33;4.10;99.90
285;DHT22;127;48.770;9.212;2023-03-04T11:41:08;4.10;99.90
285;DHT22;127;48.770;9.212;2023-03-04T11:43:39;3.90;99.90
285;DHT22;127;48.770;9.212;2023-03-04T11:46:32;3.80;99.90
285;DHT22;127;48.770;9.212;2023-03-04T11:49:26;3.80;99.90
285;DHT22;127;48.770;9.212;2023-03-04T11:52:05;3.80;99.90
285;DHT22;127;48.770;9.212;2023-03-04T11:54:44;3.80;99.90
285;DHT22;127;48.770;9.212;2023-03-04T11:57:22;3.70;99.90
285;DHT22;127;48.770;9.212;2023-03-04T12:00:11;3.80;99.90
285;DHT22;127;48.770;9.212;2023-03-04T12:03:03;3.80;99.90
285;DHT22;127;48.770;9.212;2023-03-04T12:05:45;3.70;99.90
285;DHT22;127;48.770;9.212;2023-03-04T12:08:47;3.50;99.90
285;DHT22;127;48.770;9.212;2023-03-04T12:11:26;3.60;99.90
285;DHT22;127;48.770;9.212;2023-03-04T12:14:08;3.60;99.90
285;DHT22;127;48.770;9.212;2023-03-04T12:16:59;3.70;99.90
285;DHT22;127;48.770;9.212;2023-03-04T12:19:41;3.60;99.90
285;DHT22;127;48.770;9.212;2023-03-04T12:22:25;3.70;99.90
285;DHT22;127;48.770;9.212;2023-03-04T12:25:12;3.60;99.90
285;DHT22;127;48.770;9.212;2023-03-04T12:27:50;3.40;99.90
285;DHT22;127;48.770;9.212;2023-03-04T12:30:33;3.60;99.90
285;DHT22;127;48.770;9.212;2023-03-04T12:33:11;3.70;99.90
285;DHT22;127;48.770;9.212;2023-03-04T12:35:43;3.80;99.90
285;DHT22;127;48.770;9.212;2023-03-04T12:38:33;3.80;99.90
285;DHT22;127;48.770;9.212;2023-03-04T12:41:20;3.90;99.90
285;DHT22;127;48.770;9.212;2023-03-04T12:43:57;3.80;99.90
285;DHT22;127;48.770;9.212;2023-03-04T12:46:36;3.70;99.90
285;DHT22;127;48.770;9.212;2023-03-04T12:49:33;3.60;99.90
285;DHT22;127;48.770;9.212;2023-03-04T12:52:10;3.60;99.90
285;DHT22;127;48.770;9.212;2023-03-04T12:54:44;3.70;99.90
285;DHT22;127;48.770;9.212;2023-03-04T12:57:19;3.50;99.90
285;DHT22;127;48.770;9.212;2023-03-04T12:59:51;3.50;99.90
285;DHT22;127;48.770;9.212;2023-03-04T13:02:48;3.50;99.90
285;DHT22;127;48.770;9.212;2023-03-04T13:05:35;3.50;99.90
285;DHT22;127;48.770;9.212;2023-03-04T13:08:18;3.50;99.90
285;DHT22;127;48.770;9.212;2023-03-04T13:10:52;3.50;99.90
285;DHT22;127;48.770;9.212;2023-03-04T13:13:37;3.40;99.90
285;DHT22;127;48.770;9.212;2023-03-04T13:16:21;3.50;99.90
285;DHT22;127;48.770;9.212;2023-03-04T13:18:55;3.50;99.90
285;DHT22;127;48.770;9.212;2023-03-04T13:21:25;3.50;99.90
285;DHT22;127;48.770;9.212;2023-03-04T13:23:54;3.40;99.90
285;DHT22;127;48.770;9.212;2023-03-04T13:26:28;3.40;99.90
285;DHT22;127;48.770;9.212;2023-03-04T13:29:32;3.40;99.90
285;DHT22;127;48.770;9.212;2023-03-04T13:32:03;3.30;99.90
285;DHT22;127;48.770;9.212;2023-03-04T13:34:46;3.20;99.90
285;DHT22;127;48.770;9.212;2023-03-04T13:37:31;3.20;99.90
285;DHT22;127;48.770;9.212;2023-03-04T13:46:29;3.30;99.90
285;DHT22;127;48.770;9.212;2023-03-04T13:49:01;3.30;99.90
285;DHT22;127;48.770;9.212;2023-03-04T13:51:33;3.20;99.90
285;DHT22;127;48.770;9.212;2023-03-04T13:54:10;3.20;99.90
285;DHT22;127;48.770;9.212;2023-03-04T13:56:40;3.10;99.90
285;DHT22;127;48.770;9.212;2023-03-04T13:59:29;3.10;99.90
285;DHT22;127;48.770;9.212;2023-03-04T14:02:10;3.10;99.90
285;DHT22;127;48.770;9.212;2023-03-04T14:04:42;3.00;99.90
285;DHT22;127;48.770;9.212;2023-03-04T14:07:20;3.10;99.90
285;DHT22;127;48.770;9.212;2023-03-04T14:09:58;3.10;99.90
285;DHT22;127;48.770;9.212;2023-03-04T14:12:29;3.10;99.90
285;DHT22;127;48.770;9.212;2023-03-04T14:14:59;3.10;99.90
285;DHT22;127;48.770;9.212;2023-03-04T14:17:34;3.10;99.90
285;DHT22;127;48.770;9.212;2023-03-04T14:20:06;3.10;99.90
285;DHT22;127;48.770;9.212;2023-03-04T14:22:48;3.00;99.90
285;DHT22;127;48.770;9.212;2023-03-04T14:25:22;3.10;99.90
285;DHT22;127;48.770;9.212;2023-03-04T14:28:02;3.10;99.90
285;DHT22;127;48.770;9.212;2023-03-04T14:30:31;3.10;99.90
285;DHT22;127;48.770;9.212;2023-03-04T14:33:06;3.10;99.90
285;DHT22;127;48.770;9.212;2023-03-04T14:35:36;3.10;99.90
285;DHT22;127;48.770;9.212;2023-03-04T14:38:11;3.10;99.90
285;DHT22;127;48.770;9.212;2023-03-04T14:40:45;2.90;99.90
285;DHT22;127;48.770;9.212;2023-03-04T14:43:18;2.90;99.90
285;DHT22;127;48.770;9.212;2023-03-04T14:45:49;2.80;99.90
285;DHT22;127;48.770;9.212;2023-03-04T14:48:23;2.80;99.90
285;DHT22;127;48.770;9.212;2023-03-04T14:50:54;2.80;99.90
285;DHT22;127;48.770;9.212;2023-03-04T14:53:25;2.80;99.90
285;DHT22;127;48.770;9.212;2023-03-04T14:55:56;2.80;99.90
285;DHT22;127;48.770;9.212;2023-03-04T14:58:26;2.80;99.90
285;DHT22;127;48.770;9.212;2023-03-04T15:01:13;2.70;99.90
285;DHT22;127;48.770;9.212;2023-03-04T15:03:52;2.70;99.90
285;DHT22;127;48.770;9.212;2023-03-04T15:06:24;2.70;99.90
285;DHT22;127;48.770;9.212;2023-03-04T15:08:55;2.70;99.90
285;DHT22;127;48.770;9.212;2023-03-04T15:11:27;2.70;99.90
285;DHT22;127;48.770;9.212;2023-03-04T15:13:57;2.70;99.90
285;DHT22;127;48.770;9.212;2023-03-04T15:16:28;2.70;99.90
285;DHT22;127;48.770;9.212;2023-03-04T15:19:27;2.70;99.90
285;DHT22;127;48.770;9.212;2023-03-04T15:22:05;2.70;99.90
285;DHT22;127;48.770;9.212;2023-03-04T15:24:34;2.60;99.90
285;DHT22;127;48.770;9.212;2023-03-04T15:27:03;2.70;99.90
285;DHT22;127;48.770;9.212;2023-03-04T15:29:33;2.70;99.90
285;DHT22;127;48.770;9.212;2023-03-04T15:32:01;2.60;99.90
285;DHT22;127;48.770;9.212;2023-03-04T15:34:32;2.60;99.90
285;DHT22;127;48.770;9.212;2023-03-04T15:37:01;2.50;99.90
285;DHT22;127;48.770;9.212;2023-03-04T15:39:30;2.50;99.90
285;DHT22;127;48.770;9.212;2023-03-04T15:41:59;2.50;99.90
285;DHT22;127;48.770;9.212;2023-03-04T15:44:28;2.50;99.90
285;DHT22;127;48.770;9.212;2023-03-04T15:46:57;2.60;99.90
285;DHT22;127;48.770;9.212;2023-03-04T15:49:25;2.60;99.90
285;DHT22;127;48.770;9.212;2023-03-04T15:51:56;2.60;99.90
285;DHT22;127;48.770;9.212;2023-03-04T15:54:26;2.60;99.90
285;DHT22;127;48.770;9.212;2023-03-04T15:56:56;2.60;99.90
285;DHT22;127;48.770;9.212;2023-03-04T15:59:25;2.70;99.90
285;DHT22;127;48.770;9.212;2023-03-04T16:01:54;2.70;99.90
285;DHT22;127;48.770;9.212;2023-03-04T16:04:23;2.70;99.90
285;DHT22;127;48.770;9.212;2023-03-04T16:06:51;2.80;99.90
285;DHT22;127;48.770;9.212;2023-03-04T16:09:26;2.80;99.90
285;DHT22;127;48.770;9.212;2023-03-04T16:11:55;2.80;99.90
285;DHT22;127;48.770;9.212;2023-03-04T16:14:26;2.80;99.90
285;DHT22;127;48.770;9.212;2023-03-04T16:16:55;2.70;99.90
285;DHT22;127;48.770;9.212;2023-03-04T16:19:23;2.70;99.90
285;DHT22;127;48.770;9.212;2023-03-04T16:21:52;2.70;99.90
285;DHT22;127;48.770;9.212;2023-03-04T16:24:20;2.70;99.90
285;DHT22;127;48.770;9.212;2023-03-04T16:26:52;2.80;99.90
285;DHT22;127;48.770;9.212;2023-03-04T16:29:20;2.80;99.90
285;DHT22;127;48.770;9.212;2023-03-04T16:31:49;2.60;99.90
285;DHT22;127;48.770;9.212;2023-03-04T16:34:17;2.60;99.90
285;DHT22;127;48.770;9.212;2023-03-04T16:36:46;2.60;99.90
285;DHT22;127;48.770;9.212;2023-03-04T16:39:19;2.60;99.90
285;DHT22;127;48.770;9.212;2023-03-04T16:41:52;2.60;99.90
285;DHT22;127;48.770;9.212;2023-03-04T16:44:21;2.60;99.90
285;DHT22;127;48.770;9.212;2023-03-04T16:46:49;2.50;99.90
285;DHT22;127;48.770;9.212;2023-03-04T16:49:18;2.50;99.90
285;DHT22;127;48.770;9.212;2023-03-04T16:51:48;2.50;99.90
285;DHT22;127;48.770;9.212;2023-03-04T16:54:22;2.50;99.90
285;DHT22;127;48.770;9.212;2023-03-04T16:56:55;2.50;99.90
285;DHT22;127;48.770;9.212;2023-03-04T16:59:24;2.40;99.90
285;DHT22;127;48.770;9.212;2023-03-04T17:01:53;2.40;99.90
285;DHT22;127;48.770;9.212;2023-03-04T17:04:22;2.50;99.90
285;DHT22;127;48.770;9.212;2023-03-04T17:06:50;2.40;99.90
285;DHT22;127;48.770;9.212;2023-03-04T17:09:19;2.50;99.90
285;DHT22;127;48.770;9.212;2023-03-04T17:11:47;2.50;99.90
285;DHT22;127;48.770;9.212;2023-03-04T17:14:20;2.40;99.90
285;DHT22;127;48.770;9.212;2023-03-04T17:16:48;2.50;99.90
285;DHT22;127;48.770;9.212;2023-03-04T17:19:17;2.50;99.90
285;DHT22;127;48.770;9.212;2023-03-04T17:21:46;2.50;99.90
285;DHT22;127;48.770;9.212;2023-03-04T17:24:14;2.50;99.90
285;DHT22;127;48.770;9.212;2023-03-04T17:26:43;2.50;99.90